sensor_id;sensor_type;location;lat;lon;timestamp;P1;durP1;ratioP1;P2;durP2;ratioP2
7179;SDS011;3631;42.152;24.756;2023-07-24T00:00:47;15.18;;;10.88;;
7179;SDS011;3631;42.152;24.756;2023-07-24T00:03:14;16.40;;;9.32;;
7179;SDS011;3631;42.152;24.756;2023-07-24T00:05:42;10.02;;;9.13;;
7179;SDS011;3631;42.152;24.756;2023-07-24T00:08:09;10.45;;;8.50;;
7179;SDS011;3631;42.152;24.756;2023-07-24T00:10:36;9.88;;;8.13;;
7179;SDS011;3631;42.152;24.756;2023-07-24T00:13:03;9.73;;;7.68;;
7179;SDS011;3631;42.152;24.756;2023-07-24T00:15:29;11.80;;;8.15;;
7179;SDS011;3631;42.152;24.756;2023-07-24T00:17:56;8.80;;;8.00;;
7179;SDS011;3631;42.152;24.756;2023-07-24T00:20:23;9.18;;;8.27;;
7179;SDS011;3631;42.152;24.756;2023-07-24T00:22:52;11.10;;;9.07;;
7179;SDS011;3631;42.152;24.756;2023-07-24T00:25:19;9.75;;;8.75;;
7179;SDS011;3631;42.152;24.756;2023-07-24T00:27:46;12.15;;;8.40;;
7179;SDS011;3631;42.152;24.756;2023-07-24T00:30:13;11.50;;;9.02;;
7179;SDS011;3631;42.152;24.756;2023-07-24T00:32:40;13.77;;;8.10;;
7179;SDS011;3631;42.152;24.756;2023-07-24T00:35:07;10.98;;;8.98;;
7179;SDS011;3631;42.152;24.756;2023-07-24T00:37:34;11.10;;;9.02;;
7179;SDS011;3631;42.152;24.756;2023-07-24T00:40:03;12.23;;;8.73;;
7179;SDS011;3631;42.152;24.756;2023-07-24T00:42:30;12.85;;;8.75;;
7179;SDS011;3631;42.152;24.756;2023-07-24T00:44:57;9.98;;;9.02;;
7179;SDS011;3631;42.152;24.756;2023-07-24T00:47:24;9.88;;;8.85;;
7179;SDS011;3631;42.152;24.756;2023-07-24T00:49:53;10.25;;;8.45;;
7179;SDS011;3631;42.152;24.756;2023-07-24T00:52:20;11.45;;;8.25;;
7179;SDS011;3631;42.152;24.756;2023-07-24T00:54:47;12.60;;;9.60;;
7179;SDS011;3631;42.152;24.756;2023-07-24T00:57:16;9.15;;;8.25;;
7179;SDS011;3631;42.152;24.756;2023-07-24T00:59:43;9.63;;;8.70;;
7179;SDS011;3631;42.152;24.756;2023-07-24T01:02:11;13.68;;;9.23;;
7179;SDS011;3631;42.152;24.756;2023-07-24T01:04:38;10.30;;;9.23;;
7179;SDS011;3631;42.152;24.756;2023-07-24T01:07:05;10.68;;;9.68;;
7179;SDS011;3631;42.152;24.756;2023-07-24T01:09:32;12.40;;;9.60;;
7179;SDS011;3631;42.152;24.756;2023-07-24T01:12:01;13.60;;;9.52;;
7179;SDS011;3631;42.152;24.756;2023-07-24T01:14:38;14.05;;;9.77;;
7179;SDS011;3631;42.152;24.756;2023-07-24T01:17:11;12.65;;;9.60;;
7179;SDS011;3631;42.152;24.756;2023-07-24T01:19:43;12.68;;;9.18;;
7179;SDS011;3631;42.152;24.756;2023-07-24T01:22:15;12.50;;;9.80;;
7179;SDS011;3631;42.152;24.756;2023-07-24T01:24:55;10.63;;;9.65;;
7179;SDS011;3631;42.152;24.756;2023-07-24T01:27:31;9.32;;;8.52;;
7179;SDS011;3631;42.152;24.756;2023-07-24T01:29:58;9.77;;;8.52;;
7179;SDS011;3631;42.152;24.756;2023-07-24T01:32:25;9.30;;;8.40;;
7179;SDS011;3631;42.152;24.756;2023-07-24T01:34:52;12.68;;;8.80;;
7179;SDS011;3631;42.152;24.756;2023-07-24T01:37:20;9.00;;;8.10;;
7179;SDS011;3631;42.152;24.756;2023-07-24T01:39:48;12.23;;;9.43;;
7179;SDS011;3631;42.152;24.756;2023-07-24T01:42:16;10.18;;;8.98;;
7179;SDS011;3631;42.152;24.756;2023-07-24T01:44:45;11.00;;;9.93;;
7179;SDS011;3631;42.152;24.756;2023-07-24T01:47:17;10.73;;;9.73;;
7179;SDS011;3631;42.152;24.756;2023-07-24T01:49:44;11.07;;;9.63;;
7179;SDS011;3631;42.152;24.756;2023-07-24T01:52:11;11.35;;;10.18;;
7179;SDS011;3631;42.152;24.756;2023-07-24T01:54:38;10.90;;;9.80;;
7179;SDS011;3631;42.152;24.756;2023-07-24T01:57:05;10.73;;;9.57;;
7179;SDS011;3631;42.152;24.756;2023-07-24T01:59:32;14.00;;;10.63;;
7179;SDS011;3631;42.152;24.756;2023-07-24T02:02:00;11.63;;;10.45;;
7179;SDS011;3631;42.152;24.756;2023-07-24T02:04:27;11.80;;;10.50;;
7179;SDS011;3631;42.152;24.756;2023-07-24T02:06:53;13.25;;;10.77;;
7179;SDS011;3631;42.152;24.756;2023-07-24T02:09:20;16.17;;;11.57;;
7179;SDS011;3631;42.152;24.756;2023-07-24T02:11:47;12.18;;;10.98;;
7179;SDS011;3631;42.152;24.756;2023-07-24T02:14:14;17.55;;;11.85;;
7179;SDS011;3631;42.152;24.756;2023-07-24T02:16:42;12.60;;;11.32;;
7179;SDS011;3631;42.152;24.756;2023-07-24T02:19:10;17.35;;;11.40;;
7179;SDS011;3631;42.152;24.756;2023-07-24T02:21:37;13.25;;;11.93;;
7179;SDS011;3631;42.152;24.756;2023-07-24T02:24:05;19.77;;;12.95;;
7179;SDS011;3631;42.152;24.756;2023-07-24T02:26:32;18.85;;;12.73;;
7179;SDS011;3631;42.152;24.756;2023-07-24T02:28:59;19.98;;;13.45;;
7179;SDS011;3631;42.152;24.756;2023-07-24T02:31:26;16.48;;;13.57;;
7179;SDS011;3631;42.152;24.756;2023-07-24T02:33:53;19.08;;;14.40;;
7179;SDS011;3631;42.152;24.756;2023-07-24T02:36:21;19.23;;;14.38;;
7179;SDS011;3631;42.152;24.756;2023-07-24T02:38:48;22.27;;;16.33;;
7179;SDS011;3631;42.152;24.756;2023-07-24T02:41:15;25.58;;;18.05;;
7179;SDS011;3631;42.152;24.756;2023-07-24T02:43:42;21.50;;;18.17;;
7179;SDS011;3631;42.152;24.756;2023-07-24T02:46:09;25.52;;;17.92;;
7179;SDS011;3631;42.152;24.756;2023-07-24T02:48:35;23.52;;;19.33;;
7179;SDS011;3631;42.152;24.756;2023-07-24T02:51:02;31.00;;;19.92;;
7179;SDS011;3631;42.152;24.756;2023-07-24T02:53:31;28.20;;;20.15;;
7179;SDS011;3631;42.152;24.756;2023-07-24T02:55:58;27.63;;;19.85;;
7179;SDS011;3631;42.152;24.756;2023-07-24T02:58:24;30.05;;;18.95;;
7179;SDS011;3631;42.152;24.756;2023-07-24T03:00:51;29.95;;;19.35;;
7179;SDS011;3631;42.152;24.756;2023-07-24T03:03:18;36.95;;;19.52;;
7179;SDS011;3631;42.152;24.756;2023-07-24T03:05:45;31.42;;;18.35;;
7179;SDS011;3631;42.152;24.756;2023-07-24T03:08:12;37.75;;;20.60;;
7179;SDS011;3631;42.152;24.756;2023-07-24T03:10:41;32.85;;;20.00;;
7179;SDS011;3631;42.152;24.756;2023-07-24T03:13:08;34.65;;;19.83;;
7179;SDS011;3631;42.152;24.756;2023-07-24T03:15:35;31.92;;;20.15;;
7179;SDS011;3631;42.152;24.756;2023-07-24T03:18:02;38.80;;;19.92;;
7179;SDS011;3631;42.152;24.756;2023-07-24T03:20:28;39.10;;;21.00;;
7179;SDS011;3631;42.152;24.756;2023-07-24T03:22:55;35.97;;;20.98;;
7179;SDS011;3631;42.152;24.756;2023-07-24T03:25:22;32.35;;;20.38;;
7179;SDS011;3631;42.152;24.756;2023-07-24T03:27:51;36.90;;;21.25;;
7179;SDS011;3631;42.152;24.756;2023-07-24T03:30:18;37.08;;;22.05;;
7179;SDS011;3631;42.152;24.756;2023-07-24T03:32:45;40.42;;;22.60;;
7179;SDS011;3631;42.152;24.756;2023-07-24T03:35:11;39.92;;;22.65;;
7179;SDS011;3631;42.152;24.756;2023-07-24T03:37:38;35.55;;;21.75;;
7179;SDS011;3631;42.152;24.756;2023-07-24T03:40:06;39.70;;;22.13;;
7179;SDS011;3631;42.152;24.756;2023-07-24T03:42:33;36.55;;;21.73;;
7179;SDS011;3631;42.152;24.756;2023-07-24T03:45:02;40.03;;;23.80;;
7179;SDS011;3631;42.152;24.756;2023-07-24T03:47:29;33.85;;;21.83;;
7179;SDS011;3631;42.152;24.756;2023-07-24T03:49:56;33.42;;;21.55;;
7179;SDS011;3631;42.152;24.756;2023-07-24T03:52:23;35.63;;;21.33;;
7179;SDS011;3631;42.152;24.756;2023-07-24T03:54:50;31.25;;;20.05;;
7179;SDS011;3631;42.152;24.756;2023-07-24T03:57:17;31.85;;;20.75;;
7179;SDS011;3631;42.152;24.756;2023-07-24T03:59:44;30.13;;;19.98;;
7179;SDS011;3631;42.152;24.756;2023-07-24T04:02:12;35.13;;;22.08;;
7179;SDS011;3631;42.152;24.756;2023-07-24T04:04:39;36.97;;;21.67;;
7179;SDS011;3631;42.152;24.756;2023-07-24T04:07:06;33.58;;;21.55;;
7179;SDS011;3631;42.152;24.756;2023-07-24T04:09:33;30.45;;;20.70;;
7179;SDS011;3631;42.152;24.756;2023-07-24T04:12:00;31.60;;;20.52;;
7179;SDS011;3631;42.152;24.756;2023-07-24T04:14:27;26.92;;;18.73;;
7179;SDS011;3631;42.152;24.756;2023-07-24T04:16:54;28.67;;;19.15;;
7179;SDS011;3631;42.152;24.756;2023-07-24T04:19:22;26.52;;;18.45;;
7179;SDS011;3631;42.152;24.756;2023-07-24T04:21:49;26.65;;;18.45;;
7179;SDS011;3631;42.152;24.756;2023-07-24T04:24:16;25.60;;;16.38;;
7179;SDS011;3631;42.152;24.756;2023-07-24T04:26:43;21.75;;;16.77;;
7179;SDS011;3631;42.152;24.756;2023-07-24T04:29:10;27.40;;;15.85;;
7179;SDS011;3631;42.152;24.756;2023-07-24T04:31:37;23.33;;;15.13;;
7179;SDS011;3631;42.152;24.756;2023-07-24T04:34:04;25.10;;;15.48;;
7179;SDS011;3631;42.152;24.756;2023-07-24T04:36:32;23.83;;;14.68;;
7179;SDS011;3631;42.152;24.756;2023-07-24T04:38:59;20.52;;;15.10;;
7179;SDS011;3631;42.152;24.756;2023-07-24T04:41:26;22.25;;;15.23;;
7179;SDS011;3631;42.152;24.756;2023-07-24T04:43:53;19.50;;;14.95;;
7179;SDS011;3631;42.152;24.756;2023-07-24T04:46:19;24.88;;;17.15;;
7179;SDS011;3631;42.152;24.756;2023-07-24T04:48:46;24.17;;;14.98;;
7179;SDS011;3631;42.152;24.756;2023-07-24T04:51:13;25.08;;;15.07;;
7179;SDS011;3631;42.152;24.756;2023-07-24T04:53:42;20.70;;;15.18;;
7179;SDS011;3631;42.152;24.756;2023-07-24T04:56:08;27.15;;;16.05;;
7179;SDS011;3631;42.152;24.756;2023-07-24T04:58:35;23.27;;;16.10;;
7179;SDS011;3631;42.152;24.756;2023-07-24T05:01:03;27.23;;;16.40;;
7179;SDS011;3631;42.152;24.756;2023-07-24T05:03:30;22.50;;;14.43;;
7179;SDS011;3631;42.152;24.756;2023-07-24T05:05:57;20.77;;;15.93;;
7179;SDS011;3631;42.152;24.756;2023-07-24T05:08:24;21.95;;;15.45;;
7179;SDS011;3631;42.152;24.756;2023-07-24T05:10:55;18.70;;;14.73;;
7179;SDS011;3631;42.152;24.756;2023-07-24T05:13:23;18.20;;;14.10;;
7179;SDS011;3631;42.152;24.756;2023-07-24T05:15:50;22.65;;;14.38;;
7179;SDS011;3631;42.152;24.756;2023-07-24T05:18:17;17.08;;;15.23;;
7179;SDS011;3631;42.152;24.756;2023-07-24T05:20:44;21.88;;;16.58;;
7179;SDS011;3631;42.152;24.756;2023-07-24T05:23:12;19.27;;;16.38;;
7179;SDS011;3631;42.152;24.756;2023-07-24T05:25:39;18.73;;;15.05;;
7179;SDS011;3631;42.152;24.756;2023-07-24T05:28:08;23.17;;;17.58;;
7179;SDS011;3631;42.152;24.756;2023-07-24T05:30:35;21.15;;;17.20;;
7179;SDS011;3631;42.152;24.756;2023-07-24T05:33:02;17.73;;;15.98;;
7179;SDS011;3631;42.152;24.756;2023-07-24T05:35:29;22.25;;;16.27;;
7179;SDS011;3631;42.152;24.756;2023-07-24T05:37:56;20.90;;;16.77;;
7179;SDS011;3631;42.152;24.756;2023-07-24T05:40:23;21.20;;;15.65;;
7179;SDS011;3631;42.152;24.756;2023-07-24T05:42:50;26.75;;;17.02;;
7179;SDS011;3631;42.152;24.756;2023-07-24T05:45:18;19.38;;;16.63;;
7179;SDS011;3631;42.152;24.756;2023-07-24T05:47:45;22.27;;;17.20;;
7179;SDS011;3631;42.152;24.756;2023-07-24T05:50:12;23.92;;;16.60;;
7179;SDS011;3631;42.152;24.756;2023-07-24T05:52:39;18.70;;;16.27;;
7179;SDS011;3631;42.152;24.756;2023-07-24T05:55:07;19.60;;;17.08;;
7179;SDS011;3631;42.152;24.756;2023-07-24T05:57:35;24.20;;;17.55;;
7179;SDS011;3631;42.152;24.756;2023-07-24T06:00:02;17.75;;;15.90;;
7179;SDS011;3631;42.152;24.756;2023-07-24T06:02:30;19.27;;;16.42;;
7179;SDS011;3631;42.152;24.756;2023-07-24T06:04:58;22.63;;;16.65;;
7179;SDS011;3631;42.152;24.756;2023-07-24T06:07:25;20.88;;;17.05;;
7179;SDS011;3631;42.152;24.756;2023-07-24T06:09:52;19.45;;;15.48;;
7179;SDS011;3631;42.152;24.756;2023-07-24T06:12:18;21.15;;;16.17;;
7179;SDS011;3631;42.152;24.756;2023-07-24T06:14:45;19.92;;;15.77;;
7179;SDS011;3631;42.152;24.756;2023-07-24T06:17:12;19.48;;;16.42;;
7179;SDS011;3631;42.152;24.756;2023-07-24T06:19:41;22.30;;;16.20;;
7179;SDS011;3631;42.152;24.756;2023-07-24T06:22:07;18.33;;;15.10;;
7179;SDS011;3631;42.152;24.756;2023-07-24T06:24:34;18.38;;;15.15;;
7179;SDS011;3631;42.152;24.756;2023-07-24T06:27:01;21.17;;;15.75;;
7179;SDS011;3631;42.152;24.756;2023-07-24T06:29:28;19.40;;;15.23;;
7179;SDS011;3631;42.152;24.756;2023-07-24T06:31:55;21.05;;;15.70;;
7179;SDS011;3631;42.152;24.756;2023-07-24T06:34:22;25.23;;;15.13;;
7179;SDS011;3631;42.152;24.756;2023-07-24T06:36:50;20.27;;;15.88;;
7179;SDS011;3631;42.152;24.756;2023-07-24T06:39:17;18.15;;;16.08;;
7179;SDS011;3631;42.152;24.756;2023-07-24T06:41:44;20.23;;;16.42;;
7179;SDS011;3631;42.152;24.756;2023-07-24T06:44:11;19.45;;;15.45;;
7179;SDS011;3631;42.152;24.756;2023-07-24T06:46:38;22.05;;;15.93;;
7179;SDS011;3631;42.152;24.756;2023-07-24T06:49:05;18.02;;;16.05;;
7179;SDS011;3631;42.152;24.756;2023-07-24T06:51:31;21.63;;;15.40;;
7179;SDS011;3631;42.152;24.756;2023-07-24T06:54:00;19.90;;;16.45;;
7179;SDS011;3631;42.152;24.756;2023-07-24T06:56:27;20.30;;;16.00;;
7179;SDS011;3631;42.152;24.756;2023-07-24T06:58:54;21.52;;;15.95;;
7179;SDS011;3631;42.152;24.756;2023-07-24T07:01:21;22.33;;;16.73;;
7179;SDS011;3631;42.152;24.756;2023-07-24T07:03:48;19.15;;;16.35;;
7179;SDS011;3631;42.152;24.756;2023-07-24T07:06:15;27.70;;;16.75;;
7179;SDS011;3631;42.152;24.756;2023-07-24T07:08:42;19.63;;;16.48;;
7179;SDS011;3631;42.152;24.756;2023-07-24T07:11:10;26.33;;;17.17;;
7179;SDS011;3631;42.152;24.756;2023-07-24T07:13:37;24.58;;;17.55;;
7179;SDS011;3631;42.152;24.756;2023-07-24T07:16:04;25.60;;;17.00;;
7179;SDS011;3631;42.152;24.756;2023-07-24T07:18:31;22.17;;;16.25;;
7179;SDS011;3631;42.152;24.756;2023-07-24T07:20:58;19.73;;;15.98;;
7179;SDS011;3631;42.152;24.756;2023-07-24T07:23:25;21.02;;;16.30;;
7179;SDS011;3631;42.152;24.756;2023-07-24T07:25:52;23.08;;;17.42;;
7179;SDS011;3631;42.152;24.756;2023-07-24T07:28:20;21.73;;;16.55;;
7179;SDS011;3631;42.152;24.756;2023-07-24T07:30:47;22.85;;;16.23;;
7179;SDS011;3631;42.152;24.756;2023-07-24T07:33:14;21.98;;;16.40;;
7179;SDS011;3631;42.152;24.756;2023-07-24T07:35:41;20.63;;;16.23;;
7179;SDS011;3631;42.152;24.756;2023-07-24T07:38:08;20.42;;;17.05;;
7179;SDS011;3631;42.152;24.756;2023-07-24T07:40:36;22.38;;;17.02;;
7179;SDS011;3631;42.152;24.756;2023-07-24T07:43:03;21.50;;;15.60;;
7179;SDS011;3631;42.152;24.756;2023-07-24T07:45:31;21.25;;;17.33;;
7179;SDS011;3631;42.152;24.756;2023-07-24T07:47:58;18.30;;;16.45;;
7179;SDS011;3631;42.152;24.756;2023-07-24T07:50:25;23.60;;;16.90;;
7179;SDS011;3631;42.152;24.756;2023-07-24T07:52:52;18.92;;;16.13;;
7179;SDS011;3631;42.152;24.756;2023-07-24T07:55:19;20.05;;;15.90;;
7179;SDS011;3631;42.152;24.756;2023-07-24T07:57:46;20.27;;;15.98;;
7179;SDS011;3631;42.152;24.756;2023-07-24T08:00:13;19.85;;;15.77;;
7179;SDS011;3631;42.152;24.756;2023-07-24T08:02:42;21.42;;;15.30;;
7179;SDS011;3631;42.152;24.756;2023-07-24T08:05:09;17.48;;;15.68;;
7179;SDS011;3631;42.152;24.756;2023-07-24T08:07:37;17.23;;;15.02;;
7179;SDS011;3631;42.152;24.756;2023-07-24T08:10:04;17.63;;;15.80;;
7179;SDS011;3631;42.152;24.756;2023-07-24T08:12:32;22.33;;;15.15;;
7179;SDS011;3631;42.152;24.756;2023-07-24T08:14:59;19.27;;;16.45;;
7179;SDS011;3631;42.152;24.756;2023-07-24T08:17:26;23.90;;;17.25;;
7179;SDS011;3631;42.152;24.756;2023-07-24T08:19:55;21.98;;;16.88;;
7179;SDS011;3631;42.152;24.756;2023-07-24T08:22:21;19.98;;;17.60;;
7179;SDS011;3631;42.152;24.756;2023-07-24T08:24:49;19.40;;;17.50;;
7179;SDS011;3631;42.152;24.756;2023-07-24T08:27:16;18.98;;;16.63;;
7179;SDS011;3631;42.152;24.756;2023-07-24T08:29:43;18.17;;;16.27;;
7179;SDS011;3631;42.152;24.756;2023-07-24T08:32:10;21.80;;;18.10;;
7179;SDS011;3631;42.152;24.756;2023-07-24T08:34:38;18.42;;;16.45;;
7179;SDS011;3631;42.152;24.756;2023-07-24T08:37:06;20.30;;;16.95;;
7179;SDS011;3631;42.152;24.756;2023-07-24T08:39:33;20.17;;;18.00;;
7179;SDS011;3631;42.152;24.756;2023-07-24T08:42:00;18.83;;;16.83;;
7179;SDS011;3631;42.152;24.756;2023-07-24T08:44:34;21.70;;;17.02;;
7179;SDS011;3631;42.152;24.756;2023-07-24T08:47:03;26.63;;;17.38;;
7179;SDS011;3631;42.152;24.756;2023-07-24T08:49:31;18.17;;;15.68;;
7179;SDS011;3631;42.152;24.756;2023-07-24T08:51:59;18.83;;;16.55;;
7179;SDS011;3631;42.152;24.756;2023-07-24T08:54:30;19.10;;;15.35;;
7179;SDS011;3631;42.152;24.756;2023-07-24T08:57:01;19.65;;;15.35;;
7179;SDS011;3631;42.152;24.756;2023-07-24T08:59:29;17.60;;;15.55;;
7179;SDS011;3631;42.152;24.756;2023-07-24T09:01:56;19.13;;;16.48;;
7179;SDS011;3631;42.152;24.756;2023-07-24T09:04:23;18.30;;;16.42;;
7179;SDS011;3631;42.152;24.756;2023-07-24T09:06:50;22.88;;;15.48;;
7179;SDS011;3631;42.152;24.756;2023-07-24T09:09:17;19.95;;;17.05;;
7179;SDS011;3631;42.152;24.756;2023-07-24T09:11:50;17.27;;;15.57;;
7179;SDS011;3631;42.152;24.756;2023-07-24T09:14:22;18.73;;;15.52;;
7179;SDS011;3631;42.152;24.756;2023-07-24T09:16:50;16.90;;;14.77;;
7179;SDS011;3631;42.152;24.756;2023-07-24T09:19:27;17.70;;;15.52;;
7179;SDS011;3631;42.152;24.756;2023-07-24T09:21:54;16.30;;;14.68;;
7179;SDS011;3631;42.152;24.756;2023-07-24T09:24:21;25.75;;;16.63;;
7179;SDS011;3631;42.152;24.756;2023-07-24T09:26:50;18.48;;;14.98;;
7179;SDS011;3631;42.152;24.756;2023-07-24T09:29:18;15.90;;;14.30;;
7179;SDS011;3631;42.152;24.756;2023-07-24T09:31:46;14.20;;;12.75;;
7179;SDS011;3631;42.152;24.756;2023-07-24T09:34:14;14.32;;;12.82;;
7179;SDS011;3631;42.152;24.756;2023-07-24T09:36:42;14.70;;;13.25;;
7179;SDS011;3631;42.152;24.756;2023-07-24T09:39:10;14.70;;;12.93;;
7179;SDS011;3631;42.152;24.756;2023-07-24T09:41:37;15.52;;;13.55;;
7179;SDS011;3631;42.152;24.756;2023-07-24T09:44:06;17.40;;;12.85;;
7179;SDS011;3631;42.152;24.756;2023-07-24T09:46:33;13.80;;;12.50;;
7179;SDS011;3631;42.152;24.756;2023-07-24T09:49:00;13.30;;;12.07;;
7179;SDS011;3631;42.152;24.756;2023-07-24T09:51:30;17.20;;;13.55;;
7179;SDS011;3631;42.152;24.756;2023-07-24T09:54:00;19.70;;;12.60;;
7179;SDS011;3631;42.152;24.756;2023-07-24T09:56:32;14.80;;;12.75;;
7179;SDS011;3631;42.152;24.756;2023-07-24T09:59:01;77.85;;;61.95;;
7179;SDS011;3631;42.152;24.756;2023-07-24T10:01:31;62.92;;;53.10;;
7179;SDS011;3631;42.152;24.756;2023-07-24T10:03:59;14.60;;;13.15;;
7179;SDS011;3631;42.152;24.756;2023-07-24T10:06:27;17.67;;;13.40;;
7179;SDS011;3631;42.152;24.756;2023-07-24T10:08:56;18.42;;;13.70;;
7179;SDS011;3631;42.152;24.756;2023-07-24T10:11:24;15.00;;;13.40;;
7179;SDS011;3631;42.152;24.756;2023-07-24T10:13:52;17.48;;;13.57;;
7179;SDS011;3631;42.152;24.756;2023-07-24T10:16:20;15.85;;;12.88;;
7179;SDS011;3631;42.152;24.756;2023-07-24T10:18:48;14.90;;;13.48;;
7179;SDS011;3631;42.152;24.756;2023-07-24T10:21:15;16.02;;;13.82;;
7179;SDS011;3631;42.152;24.756;2023-07-24T10:23:42;15.27;;;13.85;;
7179;SDS011;3631;42.152;24.756;2023-07-24T10:26:11;14.52;;;13.02;;
7179;SDS011;3631;42.152;24.756;2023-07-24T10:28:40;15.45;;;13.80;;
7179;SDS011;3631;42.152;24.756;2023-07-24T10:31:07;16.73;;;14.55;;
7179;SDS011;3631;42.152;24.756;2023-07-24T10:33:48;18.52;;;14.25;;
7179;SDS011;3631;42.152;24.756;2023-07-24T10:36:17;14.85;;;13.35;;
7179;SDS011;3631;42.152;24.756;2023-07-24T10:38:45;14.75;;;13.27;;
7179;SDS011;3631;42.152;24.756;2023-07-24T10:41:13;15.10;;;13.50;;
7179;SDS011;3631;42.152;24.756;2023-07-24T10:43:40;14.45;;;12.98;;
7179;SDS011;3631;42.152;24.756;2023-07-24T10:46:08;18.20;;;14.50;;
7179;SDS011;3631;42.152;24.756;2023-07-24T10:48:35;17.40;;;13.73;;
7179;SDS011;3631;42.152;24.756;2023-07-24T10:51:07;14.30;;;12.75;;
7179;SDS011;3631;42.152;24.756;2023-07-24T10:53:36;17.00;;;13.57;;
7179;SDS011;3631;42.152;24.756;2023-07-24T10:56:04;17.92;;;14.90;;
7179;SDS011;3631;42.152;24.756;2023-07-24T10:58:31;21.85;;;15.55;;
7179;SDS011;3631;42.152;24.756;2023-07-24T11:01:02;16.85;;;13.95;;
7179;SDS011;3631;42.152;24.756;2023-07-24T11:03:30;15.32;;;13.73;;
7179;SDS011;3631;42.152;24.756;2023-07-24T11:05:58;14.00;;;12.55;;
7179;SDS011;3631;42.152;24.756;2023-07-24T11:08:26;15.70;;;13.98;;
7179;SDS011;3631;42.152;24.756;2023-07-24T11:10:54;14.98;;;13.57;;
7179;SDS011;3631;42.152;24.756;2023-07-24T11:13:22;14.43;;;13.07;;
7179;SDS011;3631;42.152;24.756;2023-07-24T11:15:51;15.15;;;13.63;;
7179;SDS011;3631;42.152;24.756;2023-07-24T11:18:18;14.77;;;13.27;;
7179;SDS011;3631;42.152;24.756;2023-07-24T11:20:47;14.10;;;12.68;;
7179;SDS011;3631;42.152;24.756;2023-07-24T11:23:16;19.80;;;15.13;;
7179;SDS011;3631;42.152;24.756;2023-07-24T11:25:45;18.98;;;14.00;;
7179;SDS011;3631;42.152;24.756;2023-07-24T11:28:13;15.95;;;14.45;;
7179;SDS011;3631;42.152;24.756;2023-07-24T11:30:41;16.63;;;14.95;;
7179;SDS011;3631;42.152;24.756;2023-07-24T11:33:10;20.52;;;14.65;;
7179;SDS011;3631;42.152;24.756;2023-07-24T11:35:40;15.50;;;13.90;;
7179;SDS011;3631;42.152;24.756;2023-07-24T11:38:08;16.90;;;15.02;;
7179;SDS011;3631;42.152;24.756;2023-07-24T11:40:36;15.45;;;14.05;;
7179;SDS011;3631;42.152;24.756;2023-07-24T11:43:15;15.68;;;14.10;;
7179;SDS011;3631;42.152;24.756;2023-07-24T11:45:44;23.58;;;17.73;;
7179;SDS011;3631;42.152;24.756;2023-07-24T11:48:12;16.55;;;14.50;;
7179;SDS011;3631;42.152;24.756;2023-07-24T11:50:42;19.63;;;15.82;;
7179;SDS011;3631;42.152;24.756;2023-07-24T11:53:18;17.83;;;14.15;;
7179;SDS011;3631;42.152;24.756;2023-07-24T11:55:48;20.67;;;15.77;;
7179;SDS011;3631;42.152;24.756;2023-07-24T11:58:17;15.23;;;13.65;;
7179;SDS011;3631;42.152;24.756;2023-07-24T12:00:45;19.10;;;15.55;;
7179;SDS011;3631;42.152;24.756;2023-07-24T12:03:13;15.70;;;14.20;;
7179;SDS011;3631;42.152;24.756;2023-07-24T12:05:40;15.38;;;13.75;;
7179;SDS011;3631;42.152;24.756;2023-07-24T12:08:08;16.10;;;14.23;;
7179;SDS011;3631;42.152;24.756;2023-07-24T12:10:35;15.10;;;13.35;;
7179;SDS011;3631;42.152;24.756;2023-07-24T12:13:03;14.30;;;12.88;;
7179;SDS011;3631;42.152;24.756;2023-07-24T12:15:32;15.15;;;12.40;;
7179;SDS011;3631;42.152;24.756;2023-07-24T12:18:00;14.00;;;12.05;;
7179;SDS011;3631;42.152;24.756;2023-07-24T12:20:27;12.38;;;11.18;;
7179;SDS011;3631;42.152;24.756;2023-07-24T12:22:55;13.07;;;11.75;;
7179;SDS011;3631;42.152;24.756;2023-07-24T12:25:22;12.73;;;11.10;;
7179;SDS011;3631;42.152;24.756;2023-07-24T12:27:50;12.73;;;11.52;;
7179;SDS011;3631;42.152;24.756;2023-07-24T12:30:17;13.85;;;11.75;;
7179;SDS011;3631;42.152;24.756;2023-07-24T12:32:45;13.55;;;11.75;;
7179;SDS011;3631;42.152;24.756;2023-07-24T12:35:12;13.43;;;11.77;;
7179;SDS011;3631;42.152;24.756;2023-07-24T12:37:39;16.08;;;12.65;;
7179;SDS011;3631;42.152;24.756;2023-07-24T12:40:07;12.88;;;11.77;;
7179;SDS011;3631;42.152;24.756;2023-07-24T12:42:35;14.10;;;11.95;;
7179;SDS011;3631;42.152;24.756;2023-07-24T12:45:02;12.40;;;11.18;;
7179;SDS011;3631;42.152;24.756;2023-07-24T12:47:29;12.77;;;10.98;;
7179;SDS011;3631;42.152;24.756;2023-07-24T12:49:58;14.00;;;11.75;;
7179;SDS011;3631;42.152;24.756;2023-07-24T12:52:28;16.05;;;11.60;;
7179;SDS011;3631;42.152;24.756;2023-07-24T12:54:56;12.82;;;11.50;;
7179;SDS011;3631;42.152;24.756;2023-07-24T12:57:23;12.88;;;11.63;;
7179;SDS011;3631;42.152;24.756;2023-07-24T12:59:51;12.50;;;11.30;;
7179;SDS011;3631;42.152;24.756;2023-07-24T13:02:18;12.93;;;11.63;;
7179;SDS011;3631;42.152;24.756;2023-07-24T13:04:45;14.50;;;10.90;;
7179;SDS011;3631;42.152;24.756;2023-07-24T13:07:13;12.27;;;11.07;;
7179;SDS011;3631;42.152;24.756;2023-07-24T13:09:40;13.98;;;11.45;;
7179;SDS011;3631;42.152;24.756;2023-07-24T13:12:07;10.98;;;9.90;;
7179;SDS011;3631;42.152;24.756;2023-07-24T13:14:35;12.35;;;11.05;;
7179;SDS011;3631;42.152;24.756;2023-07-24T13:17:02;12.57;;;11.43;;
7179;SDS011;3631;42.152;24.756;2023-07-24T13:19:29;11.52;;;10.32;;
7179;SDS011;3631;42.152;24.756;2023-07-24T13:21:56;12.07;;;10.90;;
7179;SDS011;3631;42.152;24.756;2023-07-24T13:24:25;12.38;;;11.13;;
7179;SDS011;3631;42.152;24.756;2023-07-24T13:26:52;11.93;;;10.57;;
7179;SDS011;3631;42.152;24.756;2023-07-24T13:29:18;12.85;;;10.40;;
7179;SDS011;3631;42.152;24.756;2023-07-24T13:31:45;14.18;;;11.02;;
7179;SDS011;3631;42.152;24.756;2023-07-24T13:34:12;14.25;;;11.57;;
7179;SDS011;3631;42.152;24.756;2023-07-24T13:36:39;17.00;;;11.88;;
7179;SDS011;3631;42.152;24.756;2023-07-24T13:39:06;14.63;;;10.55;;
7179;SDS011;3631;42.152;24.756;2023-07-24T13:41:34;11.82;;;10.27;;
7179;SDS011;3631;42.152;24.756;2023-07-24T13:44:03;12.95;;;11.32;;
7179;SDS011;3631;42.152;24.756;2023-07-24T13:46:30;10.93;;;9.90;;
7179;SDS011;3631;42.152;24.756;2023-07-24T13:48:57;13.63;;;11.20;;
7179;SDS011;3631;42.152;24.756;2023-07-24T13:51:24;12.07;;;10.93;;
7179;SDS011;3631;42.152;24.756;2023-07-24T13:53:51;10.57;;;9.63;;
7179;SDS011;3631;42.152;24.756;2023-07-24T13:56:19;11.35;;;9.75;;
7179;SDS011;3631;42.152;24.756;2023-07-24T13:58:49;12.90;;;11.00;;
7179;SDS011;3631;42.152;24.756;2023-07-24T14:01:16;10.90;;;9.90;;
7179;SDS011;3631;42.152;24.756;2023-07-24T14:03:42;11.70;;;10.00;;
7179;SDS011;3631;42.152;24.756;2023-07-24T14:06:09;11.45;;;10.23;;
7179;SDS011;3631;42.152;24.756;2023-07-24T14:08:36;14.48;;;10.98;;
7179;SDS011;3631;42.152;24.756;2023-07-24T14:11:03;11.13;;;9.50;;
7179;SDS011;3631;42.152;24.756;2023-07-24T14:13:30;11.15;;;9.88;;
7179;SDS011;3631;42.152;24.756;2023-07-24T14:15:58;12.38;;;10.18;;
7179;SDS011;3631;42.152;24.756;2023-07-24T14:18:25;12.23;;;10.32;;
7179;SDS011;3631;42.152;24.756;2023-07-24T14:20:52;12.00;;;10.05;;
7179;SDS011;3631;42.152;24.756;2023-07-24T14:23:21;10.73;;;9.80;;
7179;SDS011;3631;42.152;24.756;2023-07-24T14:25:48;12.60;;;10.25;;
7179;SDS011;3631;42.152;24.756;2023-07-24T14:28:15;13.07;;;10.43;;
7179;SDS011;3631;42.152;24.756;2023-07-24T14:30:42;11.40;;;10.20;;
7179;SDS011;3631;42.152;24.756;2023-07-24T14:33:10;16.23;;;10.45;;
7179;SDS011;3631;42.152;24.756;2023-07-24T14:35:37;11.07;;;9.80;;
7179;SDS011;3631;42.152;24.756;2023-07-24T14:38:04;12.18;;;9.70;;
7179;SDS011;3631;42.152;24.756;2023-07-24T14:40:31;11.13;;;10.02;;